createdAt,value
2018-06-22T00:00:22.750Z,0.00
2018-06-22T00:01:22.677Z,0.00
2018-06-22T00:02:22.604Z,0.00
2018-06-22T00:03:22.523Z,0.00
2018-06-22T00:04:22.449Z,0.00
2018-06-22T00:05:22.374Z,0.00
2018-06-22T00:06:22.298Z,0.00
2018-06-22T00:07:22.222Z,0.00
2018-06-22T00:08:22.152Z,0.00
2018-06-22T00:09:22.071Z,0.00
2018-06-22T00:10:21.996Z,0.00
2018-06-22T00:11:21.919Z,0.00
2018-06-22T00:12:21.842Z,0.00
2018-06-22T00:13:21.769Z,0.00
2018-06-22T00:14:21.695Z,0.00
2018-06-22T00:15:21.616Z,0.00
2018-06-22T00:16:21.540Z,0.00
2018-06-22T00:17:21.465Z,0.00
2018-06-22T00:18:21.388Z,0.00
2018-06-22T00:19:21.313Z,0.00
2018-06-22T00:20:21.238Z,0.00
2018-06-22T00:21:21.163Z,0.00
2018-06-22T00:22:21.087Z,0.00
2018-06-22T00:23:21.011Z,0.00
2018-06-22T00:24:20.936Z,0.00
2018-06-22T00:25:20.859Z,0.00
2018-06-22T00:26:20.787Z,0.00
2018-06-22T00:27:20.707Z,0.00
2018-06-22T00:28:20.633Z,0.00
2018-06-22T00:29:20.557Z,0.00
2018-06-22T00:30:20.481Z,0.00
2018-06-22T00:31:20.404Z,0.00
2018-06-22T00:32:20.330Z,0.00
2018-06-22T00:33:20.254Z,0.00
2018-06-22T00:34:20.179Z,0.00
2018-06-22T00:35:20.103Z,0.00
2018-06-22T00:36:20.028Z,0.00
2018-06-22T00:37:19.952Z,0.00
2018-06-22T00:38:19.876Z,0.00
2018-06-22T00:39:19.802Z,0.00
2018-06-22T00:40:19.725Z,0.00
2018-06-22T00:41:19.649Z,0.00
2018-06-22T00:42:19.574Z,0.00
2018-06-22T00:43:19.500Z,0.00
2018-06-22T00:44:19.422Z,0.00
2018-06-22T00:45:19.347Z,0.00
2018-06-22T00:46:19.273Z,0.00
2018-06-22T00:47:19.197Z,0.00
2018-06-22T00:48:19.121Z,0.00
2018-06-22T00:49:19.045Z,0.00
2018-06-22T00:50:18.970Z,0.00
2018-06-22T00:51:18.893Z,0.00
2018-06-22T00:52:18.818Z,0.00
2018-06-22T00:53:18.744Z,0.00
2018-06-22T00:54:18.668Z,0.00
2018-06-22T00:55:18.592Z,0.00
2018-06-22T00:56:18.517Z,0.00
2018-06-22T00:57:18.442Z,0.00
2018-06-22T00:58:18.368Z,0.00
2018-06-22T00:59:18.291Z,0.00
2018-06-22T01:00:18.216Z,0.00
2018-06-22T01:01:18.140Z,0.00
2018-06-22T01:02:18.067Z,0.00
2018-06-22T01:03:17.991Z,0.00
2018-06-22T01:04:17.917Z,0.00
2018-06-22T01:05:17.839Z,0.00
2018-06-22T01:06:17.764Z,0.00
2018-06-22T01:07:17.688Z,0.00
2018-06-22T01:08:17.712Z,0.00
2018-06-22T01:09:17.538Z,0.00
2018-06-22T01:10:17.463Z,0.00
2018-06-22T01:11:17.387Z,0.00
2018-06-22T01:12:17.311Z,0.00
2018-06-22T01:13:17.237Z,0.00
2018-06-22T01:14:17.161Z,0.00
2018-06-22T01:15:17.084Z,0.00
2018-06-22T01:16:17.011Z,0.00
2018-06-22T01:17:16.935Z,0.00
2018-06-22T01:18:16.859Z,0.00
2018-06-22T01:19:16.784Z,0.00
2018-06-22T01:20:16.708Z,0.00
2018-06-22T01:21:16.632Z,0.00
2018-06-22T01:22:16.604Z,0.00
2018-06-22T01:23:16.482Z,0.00
2018-06-22T01:24:16.406Z,0.00
2018-06-22T01:25:16.335Z,0.00
2018-06-22T01:26:16.256Z,0.00
2018-06-22T01:27:16.180Z,0.00
2018-06-22T01:28:16.256Z,0.00
2018-06-22T01:29:16.030Z,0.00
2018-06-22T01:30:15.953Z,0.00
2018-06-22T01:31:15.878Z,0.00
2018-06-22T01:32:15.802Z,0.00
2018-06-22T01:33:15.727Z,0.00
2018-06-22T01:34:15.654Z,0.00
2018-06-22T01:35:15.576Z,0.00
2018-06-22T01:36:15.501Z,0.00
2018-06-22T01:37:15.424Z,0.00
2018-06-22T01:38:15.350Z,0.00
2018-06-22T01:39:15.275Z,0.00
2018-06-22T01:40:15.198Z,0.00
2018-06-22T01:41:15.124Z,0.00
2018-06-22T01:42:15.048Z,0.00
2018-06-22T01:43:14.970Z,0.00
2018-06-22T01:44:14.898Z,0.00
2018-06-22T01:45:14.820Z,0.00
2018-06-22T01:46:14.745Z,0.00
2018-06-22T01:47:14.668Z,0.00
2018-06-22T01:48:14.594Z,0.00
2018-06-22T01:49:14.517Z,0.00
2018-06-22T01:50:14.441Z,0.00
2018-06-22T01:51:14.366Z,0.00
2018-06-22T01:52:14.291Z,0.00
2018-06-22T01:53:14.215Z,0.00
2018-06-22T01:54:14.139Z,0.00
2018-06-22T01:55:14.062Z,0.00
2018-06-22T01:56:13.987Z,0.00
2018-06-22T01:57:13.911Z,0.00
2018-06-22T01:58:13.833Z,0.00
2018-06-22T01:59:13.759Z,0.00
2018-06-22T02:00:13.683Z,0.00
2018-06-22T02:01:13.606Z,0.00
2018-06-22T02:02:13.533Z,0.00
2018-06-22T02:03:13.461Z,0.00
2018-06-22T02:04:13.377Z,0.00
2018-06-22T02:05:13.302Z,0.00
2018-06-22T02:06:13.228Z,0.00
2018-06-22T02:07:13.150Z,0.00
2018-06-22T02:08:13.074Z,0.00
2018-06-22T02:09:12.998Z,0.00
2018-06-22T02:10:12.923Z,0.00
2018-06-22T02:11:12.846Z,0.00
2018-06-22T02:12:12.769Z,0.00
2018-06-22T02:13:12.694Z,0.00
2018-06-22T02:14:12.624Z,0.00
2018-06-22T02:15:12.543Z,0.00
2018-06-22T02:16:12.466Z,0.00
2018-06-22T02:17:12.391Z,0.00
2018-06-22T02:18:12.315Z,0.00
2018-06-22T02:19:12.237Z,0.00
2018-06-22T02:20:12.162Z,0.00
2018-06-22T02:21:12.088Z,0.00
2018-06-22T02:22:12.012Z,0.00
2018-06-22T02:23:11.935Z,0.00
2018-06-22T02:24:11.859Z,0.00
2018-06-22T02:25:11.783Z,0.00
2018-06-22T02:26:11.707Z,0.00
2018-06-22T02:27:11.631Z,0.00
2018-06-22T02:28:11.554Z,0.00
2018-06-22T02:29:11.480Z,0.00
2018-06-22T02:30:11.405Z,0.00
2018-06-22T02:31:11.327Z,0.00
2018-06-22T02:32:11.251Z,0.00
2018-06-22T02:33:11.176Z,0.00
2018-06-22T02:34:11.101Z,0.00
2018-06-22T02:35:11.024Z,0.00
2018-06-22T02:36:10.948Z,0.00
2018-06-22T02:37:10.872Z,0.00
2018-06-22T02:38:10.797Z,0.00
2018-06-22T02:39:10.723Z,0.00
2018-06-22T02:40:10.644Z,0.00
2018-06-22T02:41:10.568Z,0.00
2018-06-22T02:42:10.492Z,0.00
2018-06-22T02:43:10.418Z,0.00
2018-06-22T02:44:10.338Z,0.00
2018-06-22T02:45:10.263Z,0.00
2018-06-22T02:46:10.188Z,0.00
2018-06-22T02:47:10.113Z,0.00
2018-06-22T02:48:10.035Z,0.00
2018-06-22T02:49:09.957Z,0.00
2018-06-22T02:50:09.883Z,0.00
2018-06-22T02:51:09.806Z,0.00
2018-06-22T02:52:09.730Z,0.00
2018-06-22T02:53:09.653Z,0.00
2018-06-22T02:54:09.581Z,0.00
2018-06-22T02:55:09.499Z,0.00
2018-06-22T02:56:09.425Z,0.00
2018-06-22T02:57:09.347Z,0.00
2018-06-22T02:58:09.272Z,0.00
2018-06-22T02:59:09.195Z,0.00
2018-06-22T03:00:09.118Z,0.00
2018-06-22T03:01:09.042Z,0.00
2018-06-22T03:02:08.966Z,0.00
2018-06-22T03:03:08.889Z,0.00
2018-06-22T03:04:08.813Z,0.00
2018-06-22T03:05:08.740Z,0.00
2018-06-22T03:06:08.660Z,0.00
2018-06-22T03:07:08.582Z,0.00
2018-06-22T03:08:08.506Z,0.00
2018-06-22T03:09:08.432Z,0.00
2018-06-22T03:10:08.354Z,0.00
2018-06-22T03:11:08.275Z,0.00
2018-06-22T03:12:08.200Z,5.63
2018-06-22T03:13:08.124Z,5.63
2018-06-22T03:14:08.051Z,5.63
2018-06-22T03:15:07.973Z,5.63
2018-06-22T03:16:07.895Z,5.63
2018-06-22T03:17:07.818Z,5.63
2018-06-22T03:18:07.741Z,5.63
2018-06-22T03:19:07.664Z,5.63
2018-06-22T03:20:07.590Z,5.63
2018-06-22T03:21:07.512Z,11.25
2018-06-22T03:22:07.435Z,11.25
2018-06-22T03:23:07.359Z,11.25
2018-06-22T03:24:07.281Z,11.25
2018-06-22T03:25:07.204Z,11.25
2018-06-22T03:26:07.128Z,11.25
2018-06-22T03:27:07.051Z,11.25
2018-06-22T03:28:06.975Z,16.88
2018-06-22T03:29:06.898Z,16.88
2018-06-22T03:30:06.822Z,16.88
2018-06-22T03:31:06.745Z,16.88
2018-06-22T03:32:06.689Z,16.88
2018-06-22T03:33:06.593Z,16.88
2018-06-22T03:34:06.516Z,16.88
2018-06-22T03:35:06.440Z,22.50
2018-06-22T03:36:06.363Z,22.50
2018-06-22T03:37:06.286Z,22.50
2018-06-22T03:38:06.210Z,22.50
2018-06-22T03:39:06.133Z,22.50
2018-06-22T03:40:06.057Z,28.13
2018-06-22T03:41:05.979Z,28.13
2018-06-22T03:42:05.904Z,28.13
2018-06-22T03:43:05.825Z,28.13
2018-06-22T03:44:05.750Z,28.13
2018-06-22T03:45:05.673Z,28.13
2018-06-22T03:46:05.598Z,33.75
2018-06-22T03:47:05.521Z,33.75
2018-06-22T03:48:05.444Z,33.75
2018-06-22T03:49:05.368Z,33.75
2018-06-22T03:50:05.291Z,33.75
2018-06-22T03:51:05.214Z,33.75
2018-06-22T03:52:05.137Z,39.38
2018-06-22T03:53:05.062Z,39.38
2018-06-22T03:54:04.986Z,39.38
2018-06-22T03:55:04.908Z,39.38
2018-06-22T03:56:04.835Z,39.38
2018-06-22T03:57:04.755Z,45.00
2018-06-22T03:58:04.679Z,45.00
2018-06-22T03:59:04.601Z,50.63
2018-06-22T04:00:04.529Z,50.63
2018-06-22T04:01:04.450Z,56.25
2018-06-22T04:02:04.374Z,56.25
2018-06-22T04:03:04.296Z,56.25
2018-06-22T04:04:04.222Z,56.25
2018-06-22T04:05:04.145Z,56.25
2018-06-22T04:06:04.068Z,56.25
2018-06-22T04:07:03.992Z,56.25
2018-06-22T04:08:03.938Z,56.25
2018-06-22T04:09:03.885Z,56.25
2018-06-22T04:10:03.762Z,56.25
2018-06-22T04:11:03.838Z,56.25
2018-06-22T04:12:03.612Z,56.25
2018-06-22T04:13:03.534Z,56.25
2018-06-22T04:14:03.459Z,56.25
2018-06-22T04:15:03.382Z,61.88
2018-06-22T04:16:03.307Z,61.88
2018-06-22T04:17:03.229Z,61.88
2018-06-22T04:18:03.156Z,67.50
2018-06-22T04:19:03.079Z,67.50
2018-06-22T04:20:03.004Z,67.50
2018-06-22T04:21:02.928Z,73.13
2018-06-22T04:22:02.853Z,73.13
2018-06-22T04:23:02.775Z,73.13
2018-06-22T04:24:02.701Z,78.75
2018-06-22T04:25:02.629Z,73.13
2018-06-22T04:26:02.551Z,73.13
2018-06-22T04:27:02.473Z,73.13
2018-06-22T04:28:02.398Z,73.13
2018-06-22T04:29:02.324Z,78.75
2018-06-22T04:30:02.249Z,78.75
2018-06-22T04:31:02.172Z,78.75
2018-06-22T04:32:02.099Z,78.75
2018-06-22T04:33:02.022Z,78.75
2018-06-22T04:34:01.948Z,73.13
2018-06-22T04:35:01.871Z,73.13
2018-06-22T04:36:01.795Z,73.13
2018-06-22T04:37:01.721Z,73.13
2018-06-22T04:38:01.650Z,73.13
2018-06-22T04:39:01.570Z,73.13
2018-06-22T04:40:01.494Z,78.75
2018-06-22T04:41:01.419Z,84.38
2018-06-22T04:42:01.347Z,84.38
2018-06-22T04:43:01.269Z,78.75
2018-06-22T04:44:01.193Z,78.75
2018-06-22T04:45:01.118Z,78.75
2018-06-22T04:46:01.045Z,78.75
2018-06-22T04:47:01.021Z,78.75
2018-06-22T04:48:00.890Z,90.00
2018-06-22T04:49:00.816Z,90.00
2018-06-22T04:50:00.741Z,90.00
2018-06-22T04:51:00.664Z,90.00
2018-06-22T04:52:00.588Z,95.63
2018-06-22T04:53:00.513Z,95.63
2018-06-22T04:54:00.438Z,95.63
2018-06-22T04:55:00.362Z,95.63
2018-06-22T04:56:00.287Z,101.25
2018-06-22T04:57:00.212Z,101.25
2018-06-22T04:58:00.137Z,101.25
2018-06-22T04:59:00.061Z,95.63
2018-06-22T04:59:59.986Z,95.63
2018-06-22T05:00:59.912Z,101.25
2018-06-22T05:01:59.836Z,106.88
2018-06-22T05:02:59.823Z,101.25
2018-06-22T05:03:59.688Z,106.88
2018-06-22T05:04:59.613Z,112.50
2018-06-22T05:05:59.535Z,118.13
2018-06-22T05:06:59.462Z,118.13
2018-06-22T05:07:59.384Z,123.75
2018-06-22T05:08:59.311Z,123.75
2018-06-22T05:09:59.237Z,123.75
2018-06-22T05:10:59.161Z,135.00
2018-06-22T05:11:59.084Z,140.63
2018-06-22T05:12:59.010Z,140.63
2018-06-22T05:13:58.935Z,146.25
2018-06-22T05:14:58.863Z,151.88
2018-06-22T05:15:58.790Z,146.25
2018-06-22T05:16:58.712Z,129.38
2018-06-22T05:17:58.636Z,129.38
2018-06-22T05:18:58.561Z,123.75
2018-06-22T05:19:58.487Z,123.75
2018-06-22T05:20:58.412Z,123.75
2018-06-22T05:21:58.338Z,123.75
2018-06-22T05:22:58.307Z,123.75
2018-06-22T05:23:58.188Z,118.13
2018-06-22T05:24:58.112Z,118.13
2018-06-22T05:25:58.040Z,118.13
2018-06-22T05:26:57.968Z,118.13
2018-06-22T05:27:57.890Z,118.13
2018-06-22T05:28:57.816Z,118.13
2018-06-22T05:29:57.743Z,118.13
2018-06-22T05:30:57.666Z,118.13
2018-06-22T05:31:57.594Z,118.13
2018-06-22T05:32:57.517Z,123.75
2018-06-22T05:33:57.443Z,123.75
2018-06-22T05:34:57.369Z,123.75
2018-06-22T05:35:57.294Z,123.75
2018-06-22T05:36:57.235Z,123.75
2018-06-22T05:37:57.145Z,123.75
2018-06-22T05:38:57.070Z,106.88
2018-06-22T05:39:56.996Z,129.38
2018-06-22T05:40:56.922Z,129.38
2018-06-22T05:41:56.848Z,129.38
2018-06-22T05:42:56.773Z,123.75
2018-06-22T05:43:56.699Z,129.38
2018-06-22T05:44:56.625Z,129.38
2018-06-22T05:45:56.551Z,112.50
2018-06-22T05:46:56.474Z,135.00
2018-06-22T05:47:56.401Z,163.13
2018-06-22T05:48:56.327Z,180.00
2018-06-22T05:49:56.252Z,191.25
2018-06-22T05:50:56.235Z,191.25
2018-06-22T05:51:56.103Z,191.25
2018-06-22T05:52:56.029Z,196.88
2018-06-22T05:53:55.959Z,202.50
2018-06-22T05:54:55.877Z,191.25
2018-06-22T05:55:55.804Z,185.63
2018-06-22T05:56:55.731Z,174.38
2018-06-22T05:57:55.655Z,157.50
2018-06-22T05:58:55.580Z,174.38
2018-06-22T05:59:55.506Z,191.25
2018-06-22T06:00:55.435Z,208.13
2018-06-22T06:01:55.359Z,219.38
2018-06-22T06:02:55.282Z,219.38
2018-06-22T06:03:55.211Z,225.00
2018-06-22T06:04:55.134Z,219.38
2018-06-22T06:05:55.061Z,225.00
2018-06-22T06:06:54.989Z,230.63
2018-06-22T06:07:54.912Z,230.63
2018-06-22T06:08:54.838Z,196.88
2018-06-22T06:09:54.764Z,208.13
2018-06-22T06:10:54.690Z,202.50
2018-06-22T06:11:54.615Z,174.38
2018-06-22T06:12:54.540Z,157.50
2018-06-22T06:13:54.487Z,146.25
2018-06-22T06:14:54.393Z,135.00
2018-06-22T06:15:54.319Z,140.63
2018-06-22T06:16:54.249Z,146.25
2018-06-22T06:17:54.172Z,157.50
2018-06-22T06:18:54.096Z,163.13
2018-06-22T06:19:54.023Z,168.75
2018-06-22T06:20:53.949Z,157.50
2018-06-22T06:21:53.874Z,168.75
2018-06-22T06:22:53.800Z,163.13
2018-06-22T06:23:53.725Z,174.38
2018-06-22T06:24:53.654Z,163.13
2018-06-22T06:25:53.578Z,140.63
2018-06-22T06:26:53.504Z,129.38
2018-06-22T06:27:53.434Z,129.38
2018-06-22T06:28:53.355Z,123.75
2018-06-22T06:29:53.281Z,151.88
2018-06-22T06:30:53.207Z,163.13
2018-06-22T06:31:53.132Z,180.00
2018-06-22T06:32:53.058Z,151.88
2018-06-22T06:33:52.984Z,146.25
2018-06-22T06:34:52.911Z,129.38
2018-06-22T06:35:52.836Z,135.00
2018-06-22T06:36:52.763Z,157.50
2018-06-22T06:37:52.688Z,191.25
2018-06-22T06:38:52.614Z,196.88
2018-06-22T06:39:52.540Z,225.00
2018-06-22T06:40:52.468Z,208.13
2018-06-22T06:41:52.414Z,202.50
2018-06-22T06:42:52.318Z,219.38
2018-06-22T06:43:52.244Z,225.00
2018-06-22T06:44:52.171Z,219.38
2018-06-22T06:45:52.099Z,208.13
2018-06-22T06:46:52.026Z,185.63
2018-06-22T06:47:51.951Z,180.00
2018-06-22T06:48:51.878Z,196.88
2018-06-22T06:49:51.803Z,219.38
2018-06-22T06:50:51.728Z,225.00
2018-06-22T06:51:51.658Z,236.25
2018-06-22T06:52:51.581Z,247.50
2018-06-22T06:53:51.506Z,219.38
2018-06-22T06:54:51.433Z,208.13
2018-06-22T06:55:51.359Z,213.75
2018-06-22T06:56:51.292Z,191.25
2018-06-22T06:57:51.211Z,174.38
2018-06-22T06:58:51.138Z,157.50
2018-06-22T06:59:51.063Z,157.50
2018-06-22T07:00:50.990Z,163.13
2018-06-22T07:01:50.917Z,135.00
2018-06-22T07:02:50.846Z,146.25
2018-06-22T07:03:50.769Z,208.13
2018-06-22T07:04:50.695Z,208.13
2018-06-22T07:05:50.620Z,191.25
2018-06-22T07:06:50.546Z,213.75
2018-06-22T07:07:50.472Z,253.13
2018-06-22T07:08:50.399Z,298.13
2018-06-22T07:09:50.325Z,275.63
2018-06-22T07:10:50.250Z,275.63
2018-06-22T07:11:50.176Z,281.25
2018-06-22T07:12:50.104Z,275.63
2018-06-22T07:13:50.031Z,236.25
2018-06-22T07:14:49.955Z,219.38
2018-06-22T07:15:49.881Z,258.75
2018-06-22T07:16:49.809Z,286.88
2018-06-22T07:17:49.734Z,326.25
2018-06-22T07:18:49.658Z,343.13
2018-06-22T07:19:49.586Z,337.50
2018-06-22T07:20:49.512Z,343.13
2018-06-22T07:21:49.439Z,348.75
2018-06-22T07:22:49.364Z,315.00
2018-06-22T07:23:49.291Z,371.25
2018-06-22T07:24:49.217Z,331.88
2018-06-22T07:25:49.144Z,270.00
2018-06-22T07:26:49.072Z,236.25
2018-06-22T07:27:48.996Z,236.25
2018-06-22T07:28:48.923Z,326.25
2018-06-22T07:29:48.850Z,382.50
2018-06-22T07:30:48.776Z,393.75
2018-06-22T07:31:48.704Z,298.13
2018-06-22T07:32:48.631Z,309.38
2018-06-22T07:33:48.556Z,343.13
2018-06-22T07:34:48.482Z,405.00
2018-06-22T07:35:48.410Z,421.88
2018-06-22T07:36:48.354Z,416.25
2018-06-22T07:37:48.264Z,320.63
2018-06-22T07:38:48.192Z,230.63
2018-06-22T07:39:48.117Z,196.88
2018-06-22T07:40:48.043Z,208.13
2018-06-22T07:41:47.971Z,253.13
2018-06-22T07:42:47.897Z,303.75
2018-06-22T07:43:47.829Z,253.13
2018-06-22T07:44:47.752Z,241.88
2018-06-22T07:45:47.679Z,230.63
2018-06-22T07:46:47.606Z,185.63
2018-06-22T07:47:47.533Z,174.38
2018-06-22T07:48:47.461Z,202.50
2018-06-22T07:49:47.416Z,241.88
2018-06-22T07:50:47.313Z,286.88
2018-06-22T07:51:47.241Z,337.50
2018-06-22T07:52:47.169Z,303.75
2018-06-22T07:53:47.095Z,241.88
2018-06-22T07:54:47.026Z,230.63
2018-06-22T07:55:46.948Z,225.00
2018-06-22T07:56:46.880Z,264.38
2018-06-22T07:57:46.809Z,303.75
2018-06-22T07:58:46.730Z,337.50
2018-06-22T07:59:46.660Z,371.25
2018-06-22T08:00:46.586Z,337.50
2018-06-22T08:01:46.511Z,376.88
2018-06-22T08:02:46.438Z,444.38
2018-06-22T08:03:46.365Z,506.25
2018-06-22T08:04:46.293Z,528.75
2018-06-22T08:05:46.220Z,455.63
2018-06-22T08:06:46.146Z,427.50
2018-06-22T08:07:46.074Z,472.50
2018-06-22T08:08:46.002Z,444.38
2018-06-22T08:09:45.929Z,495.00
2018-06-22T08:10:45.856Z,489.38
2018-06-22T08:11:45.784Z,382.50
2018-06-22T08:12:45.722Z,320.63
2018-06-22T08:13:45.640Z,309.38
2018-06-22T08:14:45.567Z,376.88
2018-06-22T08:15:45.496Z,438.75
2018-06-22T08:16:45.424Z,410.63
2018-06-22T08:17:45.439Z,410.63
2018-06-22T08:18:45.277Z,461.25
2018-06-22T08:19:45.206Z,478.13
2018-06-22T08:20:45.133Z,528.75
2018-06-22T08:21:45.062Z,472.50
2018-06-22T08:22:44.988Z,455.63
2018-06-22T08:23:44.915Z,472.50
2018-06-22T08:24:44.844Z,438.75
2018-06-22T08:25:44.771Z,466.88
2018-06-22T08:26:45.050Z,540.00
2018-06-22T08:27:44.626Z,455.63
2018-06-22T08:28:44.554Z,410.63
2018-06-22T08:29:44.484Z,450.00
2018-06-22T08:30:44.408Z,500.63
2018-06-22T08:31:44.337Z,579.38
2018-06-22T08:32:44.264Z,545.63
2018-06-22T08:33:44.193Z,556.88
2018-06-22T08:34:44.119Z,635.63
2018-06-22T08:35:44.048Z,607.50
2018-06-22T08:36:43.976Z,613.13
2018-06-22T08:37:43.905Z,551.25
2018-06-22T08:38:43.833Z,556.88
2018-06-22T08:39:43.759Z,590.63
2018-06-22T08:40:43.688Z,641.25
2018-06-22T08:41:43.650Z,613.13
2018-06-22T08:42:43.550Z,596.25
2018-06-22T08:43:43.472Z,607.50
2018-06-22T08:44:43.400Z,613.13
2018-06-22T08:45:43.331Z,624.38
2018-06-22T08:46:43.256Z,646.88
2018-06-22T08:47:43.186Z,624.38
2018-06-22T08:48:43.113Z,585.00
2018-06-22T08:49:43.041Z,596.25
2018-06-22T08:50:42.970Z,607.50
2018-06-22T08:51:42.896Z,691.88
2018-06-22T08:52:42.826Z,641.25
2018-06-22T08:53:42.754Z,590.63
2018-06-22T08:54:42.681Z,523.13
2018-06-22T08:55:42.619Z,540.00
2018-06-22T08:56:42.540Z,573.75
2018-06-22T08:57:42.469Z,590.63
2018-06-22T08:58:42.396Z,590.63
2018-06-22T08:59:42.325Z,551.25
2018-06-22T09:00:42.254Z,573.75
2018-06-22T09:01:42.182Z,585.00
2018-06-22T09:02:42.110Z,601.88
2018-06-22T09:03:42.038Z,630.00
2018-06-22T09:04:41.968Z,630.00
2018-06-22T09:05:41.895Z,573.75
2018-06-22T09:06:41.823Z,545.63
2018-06-22T09:07:41.753Z,562.50
2018-06-22T09:08:41.681Z,624.38
2018-06-22T09:09:41.614Z,641.25
2018-06-22T09:10:41.538Z,663.75
2018-06-22T09:11:41.465Z,607.50
2018-06-22T09:12:41.446Z,562.50
2018-06-22T09:13:41.323Z,534.38
2018-06-22T09:14:41.254Z,545.63
2018-06-22T09:15:41.187Z,585.00
2018-06-22T09:16:41.111Z,596.25
2018-06-22T09:17:41.039Z,675.00
2018-06-22T09:18:40.966Z,635.63
2018-06-22T09:19:40.946Z,551.25
2018-06-22T09:20:40.824Z,551.25
2018-06-22T09:21:40.754Z,573.75
2018-06-22T09:22:40.680Z,669.38
2018-06-22T09:23:40.613Z,691.88
2018-06-22T09:24:40.540Z,607.50
2018-06-22T09:25:40.469Z,506.25
2018-06-22T09:26:40.396Z,506.25
2018-06-22T09:27:40.325Z,534.38
2018-06-22T09:28:40.254Z,495.00
2018-06-22T09:29:40.184Z,405.00
2018-06-22T09:30:40.113Z,343.13
2018-06-22T09:31:40.042Z,326.25
2018-06-22T09:32:39.973Z,348.75
2018-06-22T09:33:39.899Z,326.25
2018-06-22T09:34:39.827Z,303.75
2018-06-22T09:35:39.756Z,292.50
2018-06-22T09:36:39.690Z,292.50
2018-06-22T09:37:39.614Z,292.50
2018-06-22T09:38:39.541Z,298.13
2018-06-22T09:39:39.471Z,315.00
2018-06-22T09:40:39.399Z,360.00
2018-06-22T09:41:39.327Z,405.00
2018-06-22T09:42:39.308Z,360.00
2018-06-22T09:43:39.183Z,360.00
2018-06-22T09:44:39.134Z,382.50
2018-06-22T09:45:39.042Z,472.50
2018-06-22T09:46:38.967Z,596.25
2018-06-22T09:47:38.897Z,534.38
2018-06-22T09:48:38.824Z,438.75
2018-06-22T09:49:38.752Z,416.25
2018-06-22T09:50:38.680Z,478.13
2018-06-22T09:51:38.608Z,528.75
2018-06-22T09:52:38.536Z,528.75
2018-06-22T09:53:38.464Z,495.00
2018-06-22T09:54:38.391Z,416.25
2018-06-22T09:55:38.319Z,393.75
2018-06-22T09:56:38.249Z,371.25
2018-06-22T09:57:38.177Z,371.25
2018-06-22T09:58:38.103Z,337.50
2018-06-22T09:59:38.033Z,264.38
2018-06-22T10:00:37.962Z,230.63
2018-06-22T10:01:37.889Z,236.25
2018-06-22T10:02:37.816Z,236.25
2018-06-22T10:03:37.744Z,270.00
2018-06-22T10:04:37.724Z,275.63
2018-06-22T10:05:37.604Z,326.25
2018-06-22T10:06:37.526Z,444.38
2018-06-22T10:07:37.457Z,511.88
2018-06-22T10:08:37.383Z,573.75
2018-06-22T10:09:37.313Z,635.63
2018-06-22T10:10:37.238Z,624.38
2018-06-22T10:11:37.167Z,635.63
2018-06-22T10:12:37.097Z,585.00
2018-06-22T10:13:37.100Z,540.00
2018-06-22T10:14:36.954Z,545.63
2018-06-22T10:15:36.877Z,545.63
2018-06-22T10:16:36.810Z,528.75
2018-06-22T10:17:36.733Z,495.00
2018-06-22T10:18:36.660Z,410.63
2018-06-22T10:19:36.651Z,376.88
2018-06-22T10:20:36.522Z,399.38
2018-06-22T10:21:36.447Z,421.88
2018-06-22T10:22:36.372Z,410.63
2018-06-22T10:23:36.304Z,388.13
2018-06-22T10:24:36.228Z,354.38
2018-06-22T10:25:36.155Z,354.38
2018-06-22T10:26:36.082Z,365.63
2018-06-22T10:27:36.012Z,388.13
2018-06-22T10:28:35.940Z,410.63
2018-06-22T10:29:35.869Z,410.63
2018-06-22T10:30:35.796Z,376.88
2018-06-22T10:31:35.723Z,354.38
2018-06-22T10:32:35.653Z,360.00
2018-06-22T10:33:35.581Z,360.00
2018-06-22T10:34:35.510Z,371.25
2018-06-22T10:35:35.436Z,393.75
2018-06-22T10:36:35.364Z,427.50
2018-06-22T10:37:35.291Z,405.00
2018-06-22T10:38:35.219Z,388.13
2018-06-22T10:39:35.147Z,360.00
2018-06-22T10:40:35.075Z,343.13
2018-06-22T10:41:35.003Z,320.63
2018-06-22T10:42:34.930Z,326.25
2018-06-22T10:43:34.858Z,343.13
2018-06-22T10:44:34.785Z,348.75
2018-06-22T10:45:34.714Z,354.38
2018-06-22T10:46:34.644Z,382.50
2018-06-22T10:47:34.568Z,371.25
2018-06-22T10:48:34.497Z,320.63
2018-06-22T10:49:34.424Z,275.63
2018-06-22T10:50:34.351Z,253.13
2018-06-22T10:51:34.321Z,253.13
2018-06-22T10:52:34.264Z,286.88
2018-06-22T10:53:34.135Z,365.63
2018-06-22T10:54:34.062Z,455.63
2018-06-22T10:55:33.990Z,517.50
2018-06-22T10:56:33.918Z,523.13
2018-06-22T10:57:33.844Z,500.63
2018-06-22T10:58:33.771Z,466.88
2018-06-22T10:59:33.708Z,450.00
2018-06-22T11:00:33.629Z,444.38
2018-06-22T11:01:33.555Z,427.50
2018-06-22T11:02:33.484Z,416.25
2018-06-22T11:03:33.412Z,399.38
2018-06-22T11:04:33.339Z,382.50
2018-06-22T11:05:33.269Z,376.88
2018-06-22T11:06:33.194Z,376.88
2018-06-22T11:07:33.123Z,371.25
2018-06-22T11:08:33.051Z,399.38
2018-06-22T11:09:32.979Z,421.88
2018-06-22T11:10:32.908Z,410.63
2018-06-22T11:11:32.838Z,393.75
2018-06-22T11:12:32.763Z,444.38
2018-06-22T11:13:32.725Z,517.50
2018-06-22T11:14:32.620Z,523.13
2018-06-22T11:15:32.546Z,489.38
2018-06-22T11:16:32.476Z,495.00
2018-06-22T11:17:32.403Z,450.00
2018-06-22T11:18:32.332Z,360.00
2018-06-22T11:19:32.260Z,286.88
2018-06-22T11:20:32.189Z,253.13
2018-06-22T11:21:32.117Z,247.50
2018-06-22T11:22:32.044Z,258.75
2018-06-22T11:23:31.973Z,270.00
2018-06-22T11:24:31.986Z,298.13
2018-06-22T11:25:31.829Z,298.13
2018-06-22T11:26:31.757Z,343.13
2018-06-22T11:27:31.684Z,410.63
2018-06-22T11:28:31.613Z,478.13
2018-06-22T11:29:31.542Z,534.38
2018-06-22T11:30:31.473Z,568.13
2018-06-22T11:31:31.400Z,573.75
2018-06-22T11:32:31.326Z,528.75
2018-06-22T11:33:31.254Z,483.75
2018-06-22T11:34:31.181Z,466.88
2018-06-22T11:35:31.111Z,506.25
2018-06-22T11:36:31.050Z,573.75
2018-06-22T11:37:30.968Z,663.75
2018-06-22T11:38:30.895Z,703.13
2018-06-22T11:39:30.824Z,708.75
2018-06-22T11:40:30.752Z,708.75
2018-06-22T11:41:30.683Z,821.25
2018-06-22T11:42:30.609Z,1023.75
2018-06-22T11:43:30.540Z,1040.63
2018-06-22T11:44:30.467Z,1068.75
2018-06-22T11:45:30.397Z,1018.13
2018-06-22T11:46:30.323Z,545.63
2018-06-22T11:47:30.252Z,472.50
2018-06-22T11:48:30.183Z,478.13
2018-06-22T11:49:30.111Z,562.50
2018-06-22T11:50:30.040Z,562.50
2018-06-22T11:51:29.969Z,646.88
2018-06-22T11:52:29.944Z,663.75
2018-06-22T11:53:29.826Z,770.63
2018-06-22T11:54:29.754Z,894.38
2018-06-22T11:55:29.685Z,916.88
2018-06-22T11:56:29.614Z,900.00
2018-06-22T11:57:29.544Z,1209.38
2018-06-22T11:58:29.472Z,826.88
2018-06-22T11:59:29.401Z,855.00
2018-06-22T12:00:29.331Z,1040.63
2018-06-22T12:01:29.261Z,759.38
2018-06-22T12:02:29.190Z,922.50
2018-06-22T12:03:29.119Z,466.88
2018-06-22T12:04:29.049Z,421.88
2018-06-22T12:05:28.980Z,438.75
2018-06-22T12:06:28.906Z,466.88
2018-06-22T12:07:28.839Z,500.63
2018-06-22T12:08:28.773Z,528.75
2018-06-22T12:09:28.696Z,551.25
2018-06-22T12:10:28.623Z,585.00
2018-06-22T12:11:28.637Z,658.13
2018-06-22T12:12:28.483Z,714.38
2018-06-22T12:13:28.415Z,731.25
2018-06-22T12:14:28.342Z,748.13
2018-06-22T12:15:28.271Z,950.63
2018-06-22T12:16:28.202Z,2306.25
2018-06-22T12:17:28.130Z,1963.13
2018-06-22T12:18:28.060Z,1035.00
2018-06-22T12:19:27.989Z,961.88
2018-06-22T12:20:27.918Z,956.25
2018-06-22T12:21:27.848Z,849.38
2018-06-22T12:22:27.777Z,720.00
2018-06-22T12:23:27.706Z,686.25
2018-06-22T12:24:27.639Z,1102.50
2018-06-22T12:25:27.566Z,1372.50
2018-06-22T12:26:27.497Z,1243.13
2018-06-22T12:27:27.426Z,1524.38
2018-06-22T12:28:27.357Z,753.75
2018-06-22T12:29:27.286Z,562.50
2018-06-22T12:30:27.216Z,455.63
2018-06-22T12:31:27.152Z,393.75
2018-06-22T12:32:27.077Z,399.38
2018-06-22T12:33:27.006Z,416.25
2018-06-22T12:34:26.936Z,461.25
2018-06-22T12:35:26.866Z,511.88
2018-06-22T12:36:26.797Z,489.38
2018-06-22T12:37:26.727Z,455.63
2018-06-22T12:38:26.655Z,405.00
2018-06-22T12:39:26.585Z,354.38
2018-06-22T12:40:26.515Z,331.88
2018-06-22T12:41:26.445Z,298.13
2018-06-22T12:42:26.374Z,298.13